Time;durP1;ratioP1;P1;durP2;ratioP2;P2;SDS_P1;SDS_P2;PMS_P1;PMS_P2;Temp;Humidity;BMP_temperature;BMP_pressure;BME280_temperature;BME280_humidity;BME280_pressure;Samples;Min_cycle;Max_cycle;Signal;HPM_P1;HPM_P2
2023/05/30 00:01:20;;;;;;;2.45;2.25;;;20.70;66.40;;;;;;4998076;28;20249;-66
2023/05/30 00:03:48;;;;;;;2.50;2.30;;;20.70;66.30;;;;;;4997779;28;20220;-67
2023/05/30 00:06:15;;;;;;;2.67;2.47;;;20.70;66.40;;;;;;4998074;28;20200;-67
2023/05/30 00:08:43;;;;;;;2.53;2.33;;;20.70;66.40;;;;;;4997324;28;20184;-68
2023/05/30 00:11:13;;;;;;;3.28;2.30;;;20.70;66.40;;;;;;4997630;28;20263;-66
2023/05/30 00:13:44;;;;;;;2.47;2.15;;;20.70;66.50;;;;;;4997978;28;20187;-66
2023/05/30 00:16:11;;;;;;;2.42;2.22;;;20.70;66.50;;;;;;4997558;28;20266;-67
2023/05/30 00:18:40;;;;;;;2.33;2.10;;;20.70;66.50;;;;;;4997336;28;20232;-67
2023/05/30 00:21:09;;;;;;;2.15;1.95;;;20.70;66.50;;;;;;5013942;28;20227;-67
2023/05/30 00:23:37;;;;;;;2.40;2.20;;;20.70;66.50;;;;;;5030528;28;20184;-67
2023/05/30 00:26:04;;;;;;;2.95;1.95;;;20.70;66.50;;;;;;5013450;28;20192;-67
2023/05/30 00:28:30;;;;;;;2.33;2.13;;;20.70;67.30;;;;;;5013627;28;20254;-67
2023/05/30 00:30:56;;;;;;;2.28;2.08;;;20.70;66.50;;;;;;5013691;28;20238;-67
2023/05/30 00:33:23;;;;;;;1.90;1.77;;;20.70;66.50;;;;;;4997384;28;20210;-67
2023/05/30 00:35:49;;;;;;;2.50;2.30;;;20.70;66.40;;;;;;5030035;28;20191;-67
2023/05/30 00:38:15;;;;;;;3.00;2.13;;;20.70;66.50;;;;;;5013543;28;20588;-67
2023/05/30 00:40:41;;;;;;;2.47;2.05;;;20.70;66.50;;;;;;5029992;28;20271;-67
2023/05/30 00:43:07;;;;;;;2.30;2.10;;;20.70;66.50;;;;;;5029918;28;20252;-66
2023/05/30 00:45:33;;;;;;;2.33;2.13;;;20.70;66.40;;;;;;4997291;28;20195;-67
2023/05/30 00:48:00;;;;;;;2.83;2.63;;;20.70;66.40;;;;;;4997066;28;20212;-66
2023/05/30 00:50:30;;;;;;;1.95;1.83;;;20.70;66.40;;;;;;4997020;28;20658;-67
2023/05/30 00:52:58;;;;;;;2.20;2.00;;;20.70;66.30;;;;;;4997251;28;20242;-67
2023/05/30 00:55:26;;;;;;;2.88;2.40;;;20.60;66.30;;;;;;4996932;28;20207;-67
2023/05/30 00:57:53;;;;;;;2.33;2.13;;;20.60;66.20;;;;;;5010098;22;20233;-70
2023/05/30 01:00:19;;;;;;;2.10;1.90;;;20.70;66.40;;;;;;4976439;28;20202;-70
2023/05/30 01:02:48;;;;;;;2.10;2.00;;;20.70;66.50;;;;;;4963768;28;20206;-70
2023/05/30 01:05:15;;;;;;;2.17;1.95;;;20.70;66.40;;;;;;4966584;28;20218;-70
2023/05/30 01:07:43;;;;;;;2.30;1.92;;;20.70;66.40;;;;;;4962462;28;20217;-70
2023/05/30 01:10:15;;;;;;;2.20;2.00;;;20.70;66.40;;;;;;4965235;28;20197;-70
2023/05/30 01:12:46;;;;;;;2.45;2.25;;;20.70;66.50;;;;;;4961963;28;20194;-70
2023/05/30 01:15:22;;;;;;;2.88;2.17;;;20.70;66.50;;;;;;4982840;28;20281;-70
2023/05/30 01:18:06;;;;;;;2.60;2.40;;;20.70;66.50;;;;;;4964934;28;20300;-70
2023/05/30 01:20:40;;;;;;;2.33;2.13;;;20.70;66.40;;;;;;4973142;28;20197;-70
2023/05/30 01:23:24;;;;;;;2.40;2.20;;;20.60;66.20;;;;;;4957041;28;20277;-71
2023/05/30 01:26:21;;;;;;;2.78;1.98;;;20.60;66.10;;;;;;4971244;28;20185;-70
2023/05/30 01:28:51;;;;;;;1.98;1.80;;;20.60;66.40;;;;;;4969220;28;20204;-71
2023/05/30 01:31:18;;;;;;;2.30;2.10;;;20.70;66.50;;;;;;4966728;28;20756;-71
2023/05/30 01:33:45;;;;;;;3.40;2.20;;;20.60;66.40;;;;;;4956740;28;20197;-70
2023/05/30 01:36:11;;;;;;;2.17;1.98;;;20.60;66.40;;;;;;4961931;28;20191;-70
2023/05/30 01:38:37;;;;;;;2.30;2.10;;;20.60;66.40;;;;;;4961209;28;20206;-70
2023/05/30 01:41:55;;;;;;;2.65;2.22;;;20.60;66.40;;;;;;4977469;28;20191;-70
2023/05/30 01:44:46;;;;;;;1.98;1.80;;;20.60;66.40;;;;;;4958571;28;20210;-70
2023/05/30 01:47:21;;;;;;;1.90;1.70;;;20.60;66.10;;;;;;4966333;28;20714;-70
2023/05/30 01:50:06;;;;;;;2.17;1.98;;;20.60;66.30;;;;;;4968983;28;20676;-70
2023/05/30 01:52:39;;;;;;;2.00;1.80;;;20.60;66.40;;;;;;4953415;28;20190;-70
2023/05/30 01:55:08;;;;;;;2.53;2.08;;;20.60;66.40;;;;;;4953118;28;20182;-71
2023/05/30 01:57:46;;;;;;;2.50;2.30;;;20.60;66.40;;;;;;4968044;28;20213;-71
2023/05/30 02:00:15;;;;;;;2.35;2.10;;;20.60;66.20;;;;;;4965234;28;20291;-70
2023/05/30 02:02:44;;;;;;;2.30;2.10;;;20.60;66.20;;;;;;4972189;28;20185;-71
2023/05/30 02:05:10;;;;;;;2.53;2.33;;;20.60;66.30;;;;;;4980009;28;20194;-71
2023/05/30 02:07:36;;;;;;;2.33;2.08;;;20.60;66.20;;;;;;4967538;28;20639;-70
2023/05/30 02:10:02;;;;;;;2.40;2.20;;;20.60;66.20;;;;;;4956074;28;20194;-70
2023/05/30 02:12:28;;;;;;;3.15;2.10;;;20.60;66.10;;;;;;4958012;28;20333;-71
2023/05/30 02:14:54;;;;;;;2.17;1.98;;;20.60;66.40;;;;;;4978411;28;20185;-71
2023/05/30 02:17:25;;;;;;;2.78;2.13;;;20.60;66.20;;;;;;4988243;28;20599;-71
2023/05/30 02:19:51;;;;;;;2.10;2.00;;;20.60;66.20;;;;;;4976785;28;20195;-71
2023/05/30 02:22:17;;;;;;;2.20;2.00;;;20.60;66.20;;;;;;4957247;28;20189;-71
2023/05/30 02:24:44;;;;;;;2.30;2.10;;;20.60;66.20;;;;;;4955909;28;20197;-70
2023/05/30 02:27:10;;;;;;;2.30;2.10;;;20.60;66.30;;;;;;4971888;28;20221;-70
2023/05/30 02:29:36;;;;;;;3.03;2.00;;;20.60;66.30;;;;;;4972624;28;20241;-70
2023/05/30 02:32:02;;;;;;;2.20;2.00;;;20.60;66.30;;;;;;4953321;28;20225;-71
2023/05/30 02:34:28;;;;;;;2.20;2.00;;;20.60;66.30;;;;;;4958564;28;20190;-71
2023/05/30 02:36:56;;;;;;;2.17;2.00;;;20.60;66.40;;;;;;4967550;28;20253;-70
2023/05/30 02:39:24;;;;;;;2.45;2.25;;;20.60;66.40;;;;;;4952224;28;20198;-70
2023/05/30 02:41:50;;;;;;;2.33;2.13;;;20.60;66.40;;;;;;4963403;28;20182;-70
2023/05/30 02:44:18;;;;;;;2.63;2.42;;;20.60;66.30;;;;;;4963724;28;20181;-71
2023/05/30 02:46:44;;;;;;;2.50;2.30;;;20.60;66.30;;;;;;4979603;28;20272;-71
2023/05/30 02:49:11;;;;;;;2.72;2.53;;;20.60;66.30;;;;;;4971318;28;20259;-70
2023/05/30 02:51:37;;;;;;;2.38;2.22;;;20.60;66.30;;;;;;4966588;28;20190;-71
2023/05/30 02:54:06;;;;;;;2.42;2.20;;;20.60;66.10;;;;;;4947492;28;20293;-70
2023/05/30 02:56:49;;;;;;;2.33;2.13;;;20.60;66.10;;;;;;4970533;28;20353;-70
2023/05/30 02:59:46;;;;;;;2.60;1.95;;;20.60;66.20;;;;;;4959981;28;20194;-71
2023/05/30 03:02:12;;;;;;;2.10;2.00;;;20.60;66.30;;;;;;4963527;28;20182;-69
2023/05/30 03:04:38;;;;;;;2.38;2.17;;;20.50;66.20;;;;;;4980378;28;20626;-70
2023/05/30 03:07:08;;;;;;;2.17;1.95;;;20.60;66.20;;;;;;4954313;28;20220;-71
2023/05/30 03:09:36;;;;;;;2.13;1.88;;;20.60;66.30;;;;;;4959157;28;20195;-70
2023/05/30 03:12:03;;;;;;;2.35;2.15;;;20.60;66.40;;;;;;4985439;28;20196;-70
2023/05/30 03:14:29;;;;;;;2.25;2.05;;;20.60;66.40;;;;;;4971384;28;20185;-70
2023/05/30 03:16:56;;;;;;;2.17;1.98;;;20.50;66.20;;;;;;4971091;28;20307;-70
2023/05/30 03:19:23;;;;;;;2.50;2.30;;;20.50;66.20;;;;;;4971258;28;20272;-70
2023/05/30 03:21:52;;;;;;;2.28;2.08;;;20.60;66.20;;;;;;4987179;28;20241;-70
2023/05/30 03:24:18;;;;;;;2.20;2.00;;;20.60;66.20;;;;;;4986411;28;20186;-70
2023/05/30 03:26:44;;;;;;;2.38;2.17;;;20.60;66.20;;;;;;4987253;28;20205;-70
2023/05/30 03:29:12;;;;;;;2.42;2.22;;;20.60;66.10;;;;;;4987635;28;20322;-70
2023/05/30 03:31:38;;;;;;;2.28;2.08;;;20.50;66.00;;;;;;4971152;28;20256;-71
2023/05/30 03:34:04;;;;;;;2.35;2.15;;;20.60;66.10;;;;;;4963155;28;20220;-71
2023/05/30 03:36:30;;;;;;;2.60;2.40;;;20.50;66.00;;;;;;4978291;28;20203;-71
2023/05/30 03:38:56;;;;;;;2.22;2.03;;;20.50;66.20;;;;;;4973212;28;20655;-71
2023/05/30 03:41:23;;;;;;;2.35;2.15;;;20.50;66.20;;;;;;4964117;28;20273;-70
2023/05/30 03:43:49;;;;;;;2.30;2.10;;;20.50;66.00;;;;;;4962519;28;20182;-71
2023/05/30 03:46:19;;;;;;;1.92;1.83;;;20.50;66.10;;;;;;4960605;28;20294;-71
2023/05/30 03:48:46;;;;;;;2.30;2.10;;;20.50;66.10;;;;;;4962940;28;20197;-70
2023/05/30 03:51:12;;;;;;;1.98;1.88;;;20.50;66.20;;;;;;4958853;28;20177;-71
2023/05/30 03:53:41;;;;;;;1.92;1.83;;;20.50;66.10;;;;;;4978772;28;20704;-70
2023/05/30 03:56:07;;;;;;;2.20;2.00;;;20.50;66.20;;;;;;4955475;28;20313;-70
2023/05/30 03:58:33;;;;;;;2.35;2.15;;;20.50;66.20;;;;;;4952870;28;20212;-70
2023/05/30 04:01:03;;;;;;;2.22;2.05;;;20.50;66.20;;;;;;4974322;28;20182;-70
2023/05/30 04:03:29;;;;;;;2.38;2.17;;;20.50;66.20;;;;;;4965917;28;20187;-70
2023/05/30 04:05:55;;;;;;;1.90;1.80;;;20.50;66.20;;;;;;4980090;28;20189;-70
2023/05/30 04:08:25;;;;;;;1.88;1.77;;;20.50;66.10;;;;;;4974116;28;20185;-70
2023/05/30 04:10:52;;;;;;;2.45;2.25;;;20.50;66.20;;;;;;4973878;28;20308;-70
2023/05/30 04:13:20;;;;;;;2.58;2.38;;;20.50;66.10;;;;;;4966915;28;20191;-70
2023/05/30 04:15:48;;;;;;;2.50;2.30;;;20.50;66.10;;;;;;4983788;28;20193;-70
2023/05/30 04:18:14;;;;;;;2.40;2.20;;;20.50;66.10;;;;;;4975657;28;20245;-70
2023/05/30 04:20:40;;;;;;;2.60;2.40;;;20.50;66.00;;;;;;4979017;28;20210;-70
2023/05/30 04:23:06;;;;;;;2.38;2.17;;;20.50;66.10;;;;;;4988926;28;20182;-70
2023/05/30 04:25:33;;;;;;;2.30;2.10;;;20.50;66.00;;;;;;4966052;28;20216;-70
2023/05/30 04:27:59;;;;;;;2.55;2.30;;;20.50;66.00;;;;;;4964382;28;20209;-70
2023/05/30 04:30:26;;;;;;;3.28;2.50;;;20.50;66.00;;;;;;4967339;28;20190;-70
2023/05/30 04:32:52;;;;;;;2.30;2.10;;;20.50;66.10;;;;;;4961198;28;20671;-71
2023/05/30 04:35:18;;;;;;;2.53;2.10;;;20.50;66.00;;;;;;4990008;28;20296;-70
2023/05/30 04:37:44;;;;;;;2.20;2.10;;;20.50;66.10;;;;;;4973506;28;20705;-70
2023/05/30 04:40:12;;;;;;;2.45;2.25;;;20.50;66.10;;;;;;4973731;28;20189;-70
2023/05/30 04:42:42;;;;;;;1.75;1.65;;;20.50;66.20;;;;;;4973722;28;20182;-70
2023/05/30 04:45:14;;;;;;;2.22;2.03;;;20.50;66.20;;;;;;4965433;28;20281;-70
2023/05/30 04:47:44;;;;;;;2.20;2.00;;;20.50;66.10;;;;;;4973879;28;20213;-70
2023/05/30 04:50:14;;;;;;;2.42;2.22;;;20.50;66.20;;;;;;4956947;28;20228;-71
2023/05/30 04:52:42;;;;;;;2.30;2.10;;;20.50;66.20;;;;;;4974763;28;20269;-70
2023/05/30 04:55:09;;;;;;;2.50;2.30;;;20.50;66.10;;;;;;4963185;28;20189;-70
2023/05/30 04:57:38;;;;;;;2.65;2.45;;;20.50;66.10;;;;;;4961990;28;20214;-70
2023/05/30 05:00:10;;;;;;;2.25;2.05;;;20.50;66.10;;;;;;4978054;28;20652;-70
2023/05/30 05:02:38;;;;;;;3.13;2.20;;;20.50;66.10;;;;;;4957131;28;20186;-70
2023/05/30 05:05:05;;;;;;;2.10;1.90;;;20.50;66.00;;;;;;4970102;28;20186;-70
2023/05/30 05:07:32;;;;;;;3.28;2.10;;;20.50;66.10;;;;;;4959054;28;20210;-70
2023/05/30 05:09:58;;;;;;;2.20;2.00;;;20.50;66.00;;;;;;4973945;28;20190;-70
2023/05/30 05:12:23;;;;;;;2.15;1.95;;;20.50;66.10;;;;;;4973218;28;20558;-70
2023/05/30 05:14:50;;;;;;;2.33;2.05;;;20.50;66.20;;;;;;4974471;28;20194;-70
2023/05/30 05:17:16;;;;;;;2.13;1.92;;;20.50;66.30;;;;;;4972814;28;20217;-70
2023/05/30 05:19:42;;;;;;;2.30;2.10;;;20.50;66.20;;;;;;4953674;28;20190;-70
2023/05/30 05:22:07;;;;;;;2.20;2.10;;;20.50;66.30;;;;;;4971038;28;20554;-70
2023/05/30 05:24:33;;;;;;;2.15;2.05;;;20.50;66.20;;;;;;4967146;28;20198;-70
2023/05/30 05:26:59;;;;;;;2.20;2.00;;;20.40;66.10;;;;;;4964051;28;20268;-71
2023/05/30 05:29:25;;;;;;;2.17;1.80;;;20.50;66.20;;;;;;4949762;28;20337;-71
2023/05/30 05:31:51;;;;;;;2.58;2.35;;;20.50;66.30;;;;;;4965199;28;20190;-71
2023/05/30 05:34:17;;;;;;;4.53;2.20;;;20.50;66.60;;;;;;4961654;28;20284;-72
2023/05/30 05:36:43;;;;;;;3.67;2.10;;;20.50;67.20;;;;;;4974946;28;20296;-71
2023/05/30 05:39:09;;;;;;;3.03;2.00;;;20.50;67.50;;;;;;4970063;28;20204;-71
2023/05/30 05:41:35;;;;;;;3.88;2.03;;;20.50;67.60;;;;;;4966087;28;20241;-71
2023/05/30 05:44:01;;;;;;;4.57;2.33;;;20.50;67.80;;;;;;4970167;28;20196;-71
2023/05/30 05:46:27;;;;;;;3.33;2.28;;;20.50;67.70;;;;;;4957722;28;20253;-71
2023/05/30 05:48:55;;;;;;;2.38;2.05;;;20.50;67.90;;;;;;4961205;28;20221;-71
2023/05/30 05:51:21;;;;;;;3.47;2.20;;;20.50;67.80;;;;;;4969538;28;20178;-71
2023/05/30 05:53:47;;;;;;;2.95;2.22;;;20.50;67.80;;;;;;4948970;29;20281;-71
2023/05/30 05:56:13;;;;;;;2.65;2.20;;;20.50;67.50;;;;;;4985034;28;20220;-71
2023/05/30 05:58:39;;;;;;;3.90;2.47;;;20.50;67.50;;;;;;4976945;28;20213;-71
2023/05/30 06:01:05;;;;;;;4.65;2.25;;;20.50;67.50;;;;;;4962136;28;20573;-71
2023/05/30 06:03:31;;;;;;;2.58;2.20;;;20.50;67.50;;;;;;4952956;28;20209;-71
2023/05/30 06:05:57;;;;;;;2.58;2.03;;;20.50;67.50;;;;;;4976749;28;20187;-71
2023/05/30 06:08:23;;;;;;;2.45;2.25;;;20.50;67.50;;;;;;4957494;28;20257;-71
2023/05/30 06:10:48;;;;;;;7.82;2.50;;;20.60;67.50;;;;;;4979830;28;20564;-71
2023/05/30 06:13:15;;;;;;;2.60;2.10;;;20.50;67.50;;;;;;4947533;28;20193;-71
2023/05/30 06:15:41;;;;;;;2.20;1.90;;;20.50;67.50;;;;;;4988157;28;20190;-71
2023/05/30 06:18:07;;;;;;;3.60;1.80;;;20.50;67.50;;;;;;4970461;28;20234;-71
2023/05/30 06:20:33;;;;;;;2.65;2.30;;;20.50;67.50;;;;;;4957845;28;20252;-71
2023/05/30 06:22:59;;;;;;;2.75;2.30;;;20.50;67.40;;;;;;4965089;28;20221;-71
2023/05/30 06:25:30;;;;;;;3.42;2.10;;;20.50;67.50;;;;;;4963169;28;20264;-71
2023/05/30 06:27:56;;;;;;;2.70;1.85;;;20.50;67.50;;;;;;4971890;28;20218;-71
2023/05/30 06:30:22;;;;;;;2.58;2.22;;;20.50;67.80;;;;;;4944694;28;20197;-71
2023/05/30 06:32:47;;;;;;;4.20;2.08;;;20.50;67.80;;;;;;4967382;28;20197;-71
2023/05/30 06:35:13;;;;;;;2.55;2.15;;;20.50;67.70;;;;;;4955514;28;20194;-71
2023/05/30 06:37:39;;;;;;;3.40;2.47;;;20.50;67.80;;;;;;4971643;28;20224;-71
2023/05/30 06:40:06;;;;;;;2.40;2.20;;;20.60;67.80;;;;;;4979569;28;20277;-71
2023/05/30 06:42:35;;;;;;;3.60;2.13;;;20.50;67.50;;;;;;4972934;28;20189;-72
2023/05/30 06:45:01;;;;;;;2.38;2.17;;;20.50;67.80;;;;;;4963409;28;20196;-71
2023/05/30 06:47:26;;;;;;;3.42;2.10;;;20.50;67.50;;;;;;4952362;28;20210;-71
2023/05/30 06:49:52;;;;;;;3.53;2.40;;;20.50;67.50;;;;;;4967457;28;20189;-71
2023/05/30 06:52:18;;;;;;;2.30;2.10;;;20.50;67.50;;;;;;4950177;28;20557;-71
2023/05/30 06:54:45;;;;;;;3.72;2.40;;;20.60;67.60;;;;;;4954941;28;20194;-71
2023/05/30 06:57:11;;;;;;;4.40;2.15;;;20.50;67.50;;;;;;4984808;22;20241;-67
2023/05/30 06:59:37;;;;;;;2.40;2.08;;;20.60;67.60;;;;;;4941948;28;20218;-67
2023/05/30 07:02:03;;;;;;;2.15;1.90;;;20.60;67.60;;;;;;4953269;28;20195;-68
2023/05/30 07:04:29;;;;;;;3.25;2.28;;;20.50;67.50;;;;;;4967931;28;20194;-68
2023/05/30 07:06:55;;;;;;;3.08;1.92;;;20.50;67.50;;;;;;4976722;28;20275;-68
2023/05/30 07:09:21;;;;;;;2.10;1.90;;;20.60;67.60;;;;;;4981511;28;20240;-67
2023/05/30 07:11:46;;;;;;;2.28;2.00;;;20.60;67.60;;;;;;4988220;28;20186;-68
2023/05/30 07:14:12;;;;;;;2.83;1.90;;;20.50;67.50;;;;;;4988083;28;20182;-67
2023/05/30 07:16:38;;;;;;;2.92;2.05;;;20.50;67.50;;;;;;4988303;28;20300;-68
2023/05/30 07:19:05;;;;;;;2.00;1.80;;;20.60;67.70;;;;;;4979699;28;20194;-67
2023/05/30 07:21:31;;;;;;;3.15;2.28;;;20.60;67.80;;;;;;4982478;28;20719;-68
2023/05/30 07:23:57;;;;;;;2.70;2.22;;;20.60;67.80;;;;;;4992142;28;20194;-68
2023/05/30 07:26:22;;;;;;;3.30;2.45;;;20.60;67.80;;;;;;4986560;28;20188;-69
2023/05/30 07:28:48;;;;;;;2.30;2.10;;;20.60;67.90;;;;;;4980822;28;20181;-67
2023/05/30 07:31:15;;;;;;;2.88;2.05;;;20.50;67.80;;;;;;4975582;28;20665;-68
2023/05/30 07:33:40;;;;;;;3.40;2.17;;;20.60;67.80;;;;;;4997448;28;20181;-67
2023/05/30 07:36:07;;;;;;;2.45;2.03;;;20.60;67.80;;;;;;4986311;28;20285;-67
2023/05/30 07:38:33;;;;;;;5.03;2.28;;;20.60;67.60;;;;;;4975130;28;20216;-67
2023/05/30 07:40:59;;;;;;;4.40;2.30;;;20.60;67.60;;;;;;4999918;28;20239;-69
2023/05/30 07:43:25;;;;;;;2.33;2.00;;;20.70;67.70;;;;;;4975657;28;20194;-67
2023/05/30 07:45:51;;;;;;;6.38;2.25;;;20.60;67.50;;;;;;4991866;28;20255;-67
2023/05/30 07:48:18;;;;;;;2.90;2.30;;;20.70;67.60;;;;;;4973804;28;20214;-67
2023/05/30 07:50:44;;;;;;;5.97;2.30;;;20.70;67.50;;;;;;4983645;28;20209;-68
2023/05/30 07:53:10;;;;;;;3.08;2.30;;;20.70;67.10;;;;;;4984471;28;20568;-68
2023/05/30 07:55:36;;;;;;;2.33;2.13;;;20.70;67.20;;;;;;4991402;28;20193;-68
2023/05/30 07:58:01;;;;;;;8.57;2.47;;;20.80;67.00;;;;;;4984474;28;20253;-70
2023/05/30 08:00:28;;;;;;;3.58;2.08;;;20.80;66.90;;;;;;4978551;28;20197;-65
2023/05/30 08:02:53;;;;;;;4.07;2.47;;;20.80;67.00;;;;;;4994601;28;20189;-67
2023/05/30 08:05:19;;;;;;;5.05;2.72;;;20.80;67.10;;;;;;4984245;28;20196;-66
2023/05/30 08:07:45;;;;;;;3.50;2.08;;;20.80;67.00;;;;;;4974361;28;20211;-67
2023/05/30 08:10:11;;;;;;;5.80;2.65;;;20.80;67.00;;;;;;4972590;28;20345;-67
2023/05/30 08:12:38;;;;;;;3.13;2.53;;;20.80;67.90;;;;;;4979486;28;20193;-68
2023/05/30 08:15:04;;;;;;;4.40;2.72;;;20.80;66.90;;;;;;4994290;28;20197;-67
2023/05/30 08:17:30;;;;;;;4.45;2.88;;;20.80;66.90;;;;;;4985861;28;20223;-67
2023/05/30 08:19:56;;;;;;;5.70;3.00;;;20.90;66.90;;;;;;4986243;28;20211;-67
2023/05/30 08:22:23;;;;;;;5.72;2.75;;;20.90;66.90;;;;;;4975455;28;20190;-67
2023/05/30 08:24:51;;;;;;;5.82;2.70;;;20.90;66.90;;;;;;4974646;28;20664;-67
2023/05/30 08:27:19;;;;;;;4.95;3.00;;;20.90;66.90;;;;;;4974457;28;20221;-67
2023/05/30 08:29:45;;;;;;;5.40;2.90;;;20.90;66.70;;;;;;4990728;28;20182;-68
2023/05/30 08:32:11;;;;;;;3.92;2.88;;;20.90;66.70;;;;;;4974160;28;20333;-67
2023/05/30 08:34:36;;;;;;;4.18;2.67;;;20.90;66.50;;;;;;4974613;28;20194;-67
2023/05/30 08:37:02;;;;;;;4.15;2.83;;;20.90;66.50;;;;;;4974266;28;20276;-68
2023/05/30 08:39:28;;;;;;;4.90;3.00;;;21.00;66.60;;;;;;4998447;28;20189;-67
2023/05/30 08:41:54;;;;;;;2.95;2.50;;;21.00;66.40;;;;;;4975391;28;20540;-68
2023/05/30 08:44:20;;;;;;;5.43;3.15;;;21.00;66.30;;;;;;4974415;28;20189;-68
2023/05/30 08:46:46;;;;;;;4.47;2.70;;;21.00;66.30;;;;;;4974009;28;20233;-67
2023/05/30 08:49:24;;;;;;;4.78;2.95;;;21.00;66.20;;;;;;4973762;28;20185;-67
2023/05/30 08:51:53;;;;;;;4.90;2.83;;;21.00;66.30;;;;;;4990516;28;20217;-68
2023/05/30 08:54:28;;;;;;;4.25;2.60;;;21.10;66.60;;;;;;4974158;28;20185;-67
2023/05/30 08:57:04;;;;;;;4.45;3.40;;;21.00;66.40;;;;;;4990378;28;20225;-67
2023/05/30 08:59:31;;;;;;;5.43;3.20;;;21.10;66.40;;;;;;4974068;28;20193;-68
2023/05/30 09:01:58;;;;;;;6.72;3.05;;;21.10;66.50;;;;;;4990261;28;20182;-67
2023/05/30 09:04:25;;;;;;;6.03;3.17;;;21.10;66.30;;;;;;4973670;28;20197;-67
2023/05/30 09:06:54;;;;;;;5.10;3.03;;;21.10;66.30;;;;;;4979415;28;20205;-68
2023/05/30 09:09:22;;;;;;;4.63;3.03;;;21.10;66.30;;;;;;4997893;28;20609;-68
2023/05/30 09:11:51;;;;;;;3.80;2.97;;;21.10;66.40;;;;;;4974100;28;20239;-67
2023/05/30 09:14:17;;;;;;;3.35;3.05;;;21.10;66.40;;;;;;4989808;28;20185;-68
2023/05/30 09:16:43;;;;;;;4.25;2.80;;;21.10;66.30;;;;;;4989954;28;20209;-69
2023/05/30 09:19:08;;;;;;;6.07;3.08;;;21.10;66.40;;;;;;4973291;28;20252;-67
2023/05/30 09:21:35;;;;;;;4.25;2.83;;;21.10;66.30;;;;;;4993441;28;20201;-67
2023/05/30 09:24:05;;;;;;;4.88;2.88;;;21.10;66.30;;;;;;4986063;28;20197;-67
2023/05/30 09:26:34;;;;;;;5.03;2.95;;;21.10;66.30;;;;;;4973478;28;20249;-68
2023/05/30 09:29:12;;;;;;;6.50;3.20;;;21.10;66.30;;;;;;4987418;28;20186;-68
2023/05/30 09:31:40;;;;;;;5.47;2.90;;;21.10;66.30;;;;;;4970593;28;20242;-68
2023/05/30 09:34:06;;;;;;;3.88;2.80;;;21.10;66.20;;;;;;4976893;28;20190;-67
2023/05/30 09:36:32;;;;;;;6.72;3.22;;;21.10;66.10;;;;;;4978150;28;20238;-68
2023/05/30 09:39:05;;;;;;;5.22;2.95;;;21.10;66.00;;;;;;4968793;28;20236;-67
2023/05/30 09:41:32;;;;;;;6.05;3.15;;;21.10;66.10;;;;;;4981395;28;20194;-67
2023/05/30 09:43:59;;;;;;;3.33;3.03;;;21.20;66.20;;;;;;4972771;28;20236;-68
2023/05/30 09:46:30;;;;;;;4.13;2.92;;;21.10;66.00;;;;;;4973167;28;20217;-67
2023/05/30 09:48:56;;;;;;;4.20;3.00;;;21.20;65.60;;;;;;4979548;28;20192;-66
2023/05/30 09:51:29;;;;;;;5.53;3.05;;;21.10;65.50;;;;;;4982472;28;20197;-67
2023/05/30 09:54:05;;;;;;;3.30;2.70;;;21.10;65.60;;;;;;4977821;28;20287;-67
2023/05/30 09:56:41;;;;;;;3.72;3.13;;;21.10;65.70;;;;;;4980473;28;20220;-67
2023/05/30 09:59:11;;;;;;;3.67;3.20;;;21.20;65.60;;;;;;4981014;28;20192;-67
2023/05/30 10:01:50;;;;;;;3.28;2.85;;;21.10;65.40;;;;;;4985475;28;20189;-68
2023/05/30 10:04:22;;;;;;;8.00;3.13;;;21.10;65.30;;;;;;4960052;28;20224;-66
2023/05/30 10:06:54;;;;;;;3.47;3.05;;;21.10;65.30;;;;;;5000520;28;20236;-67
2023/05/30 10:09:22;;;;;;;6.15;3.22;;;21.20;65.10;;;;;;4990817;28;20197;-67
2023/05/30 10:11:48;;;;;;;5.15;3.20;;;21.20;64.80;;;;;;4989055;28;20189;-67
2023/05/30 10:14:14;;;;;;;3.42;3.10;;;21.10;64.80;;;;;;4972854;28;20177;-67
2023/05/30 10:16:48;;;;;;;3.67;3.38;;;21.10;64.80;;;;;;4972298;28;20714;-67
2023/05/30 10:19:24;;;;;;;4.90;3.10;;;21.10;64.80;;;;;;4972581;28;20200;-67
2023/05/30 10:21:53;;;;;;;3.33;3.03;;;21.20;65.00;;;;;;4988911;28;20185;-67
2023/05/30 10:24:20;;;;;;;4.03;2.88;;;21.20;64.90;;;;;;4988616;28;20199;-67
2023/05/30 10:26:55;;;;;;;3.15;2.80;;;21.20;64.90;;;;;;4993476;28;20204;-67
2023/05/30 10:29:27;;;;;;;4.78;3.05;;;21.20;65.00;;;;;;4974679;28;20200;-67
2023/05/30 10:31:55;;;;;;;3.85;3.03;;;21.20;65.20;;;;;;4978191;28;20181;-67
2023/05/30 10:34:32;;;;;;;5.68;3.50;;;21.20;65.20;;;;;;4990552;28;20252;-67
2023/05/30 10:36:59;;;;;;;3.75;3.00;;;21.20;65.30;;;;;;4978439;28;20576;-67
2023/05/30 10:39:43;;;;;;;3.78;3.30;;;21.20;65.20;;;;;;4974814;28;20261;-67
2023/05/30 10:42:31;;;;;;;5.28;3.17;;;21.20;65.20;;;;;;4975957;28;20185;-67
2023/05/30 10:45:25;;;;;;;3.53;3.22;;;21.20;65.00;;;;;;4972236;28;20220;-67
2023/05/30 10:48:28;;;;;;;4.03;3.50;;;21.20;65.10;;;;;;4982261;28;20296;-65
2023/05/30 10:50:59;;;;;;;4.55;3.20;;;21.20;65.10;;;;;;4972245;28;20193;-67
2023/05/30 10:53:26;;;;;;;4.18;3.47;;;21.20;64.90;;;;;;4972260;28;20657;-68
2023/05/30 10:55:51;;;;;;;5.63;3.30;;;21.20;64.80;;;;;;4971955;28;20196;-67
2023/05/30 10:58:37;;;;;;;3.53;3.10;;;21.20;64.70;;;;;;4973098;28;20217;-67
2023/05/30 11:01:30;;;;;;;3.20;2.90;;;21.20;64.60;;;;;;4972390;28;20208;-67
2023/05/30 11:04:00;;;;;;;3.70;3.40;;;21.20;64.80;;;;;;4988021;28;20181;-67
2023/05/30 11:06:29;;;;;;;3.13;2.80;;;21.20;64.80;;;;;;4955642;28;20244;-67
2023/05/30 11:09:07;;;;;;;3.83;3.42;;;21.20;64.80;;;;;;4988017;28;20189;-68
2023/05/30 11:11:45;;;;;;;3.28;2.60;;;21.20;64.90;;;;;;4971821;28;20653;-67
2023/05/30 11:14:14;;;;;;;4.25;2.88;;;21.20;65.10;;;;;;4988341;28;20731;-67
2023/05/30 11:16:49;;;;;;;4.43;3.17;;;21.20;65.10;;;;;;4987903;28;20212;-68
2023/05/30 11:19:15;;;;;;;3.97;3.10;;;21.20;65.00;;;;;;4971654;28;20189;-67
2023/05/30 11:22:02;;;;;;;3.90;3.58;;;21.20;64.90;;;;;;4988277;28;20174;-67
2023/05/30 11:24:32;;;;;;;4.60;3.30;;;21.20;65.00;;;;;;4972099;28;20202;-67
2023/05/30 11:27:06;;;;;;;3.60;3.17;;;21.20;65.00;;;;;;4988186;28;20209;-67
2023/05/30 11:29:44;;;;;;;3.58;3.00;;;21.20;64.70;;;;;;4971503;28;20196;-67
2023/05/30 11:32:11;;;;;;;3.40;3.10;;;21.20;64.80;;;;;;4996045;28;20189;-67
2023/05/30 11:34:38;;;;;;;3.38;3.08;;;21.30;64.90;;;;;;4979562;28;20802;-67
2023/05/30 11:37:04;;;;;;;5.97;2.78;;;21.30;64.90;;;;;;4994875;28;20215;-67
2023/05/30 11:39:34;;;;;;;5.75;3.30;;;21.20;64.90;;;;;;4988951;28;20241;-68
2023/05/30 11:42:01;;;;;;;3.72;3.03;;;21.20;65.00;;;;;;4979667;28;20276;-68
2023/05/30 11:44:32;;;;;;;3.35;2.92;;;21.30;65.10;;;;;;4988884;28;20312;-67
2023/05/30 11:47:05;;;;;;;4.18;3.10;;;21.20;65.20;;;;;;4988119;28;20705;-67
2023/05/30 11:49:31;;;;;;;4.68;3.28;;;21.20;65.30;;;;;;4987845;28;20653;-67
2023/05/30 11:51:57;;;;;;;3.35;2.83;;;21.10;65.40;;;;;;4971955;28;20192;-68
2023/05/30 11:54:25;;;;;;;3.25;2.95;;;21.10;65.40;;;;;;4991236;28;20537;-68
2023/05/30 11:56:51;;;;;;;3.97;3.08;;;21.10;65.50;;;;;;4977853;28;20214;-67
2023/05/30 11:59:22;;;;;;;4.40;3.08;;;21.10;65.70;;;;;;4971230;28;20197;-67
2023/05/30 12:01:56;;;;;;;3.95;3.00;;;21.10;65.60;;;;;;4989070;28;20227;-67
2023/05/30 12:04:31;;;;;;;3.47;3.15;;;21.10;65.60;;;;;;4971493;28;20276;-68
2023/05/30 12:07:05;;;;;;;3.50;3.17;;;21.10;65.70;;;;;;4978947;28;20247;-67
2023/05/30 12:09:41;;;;;;;3.30;3.00;;;21.10;65.50;;;;;;4959516;28;20216;-68
2023/05/30 12:12:08;;;;;;;3.58;3.10;;;21.00;65.30;;;;;;4991910;28;20204;-67
2023/05/30 12:14:44;;;;;;;2.90;2.70;;;21.00;65.30;;;;;;4978041;28;20224;-69
2023/05/30 12:17:22;;;;;;;3.67;3.20;;;21.10;65.30;;;;;;4989982;28;20216;-68
2023/05/30 12:20:06;;;;;;;3.25;2.95;;;21.00;65.10;;;;;;4976997;28;20197;-68
2023/05/30 12:22:32;;;;;;;3.40;2.95;;;21.00;65.10;;;;;;4983984;28;20185;-67
2023/05/30 12:24:58;;;;;;;3.33;2.70;;;21.10;65.30;;;;;;4974260;28;20182;-68
2023/05/30 12:27:26;;;;;;;3.95;2.80;;;21.00;65.20;;;;;;4966626;28;20222;-68
2023/05/30 12:29:52;;;;;;;3.63;3.30;;;21.10;65.30;;;;;;4976356;28;20260;-67
2023/05/30 12:32:26;;;;;;;3.65;3.20;;;21.00;65.10;;;;;;4998827;28;20196;-68
2023/05/30 12:34:57;;;;;;;3.42;3.08;;;21.10;65.30;;;;;;4999130;28;20193;-68
2023/05/30 12:37:23;;;;;;;3.97;2.88;;;21.00;65.20;;;;;;4974235;28;20213;-68
2023/05/30 12:39:57;;;;;;;4.38;3.35;;;21.00;65.10;;;;;;4974262;28;20562;-67
2023/05/30 12:42:28;;;;;;;3.15;2.83;;;21.00;65.30;;;;;;4990528;28;20192;-69
2023/05/30 12:44:57;;;;;;;4.63;3.22;;;21.00;65.10;;;;;;4990491;28;20196;-68
2023/05/30 12:47:25;;;;;;;3.55;2.90;;;21.00;65.00;;;;;;4976260;28;20214;-68
2023/05/30 12:49:51;;;;;;;3.03;2.72;;;21.00;65.00;;;;;;4986670;28;20176;-68
2023/05/30 12:52:23;;;;;;;3.88;3.00;;;21.00;64.80;;;;;;4981725;28;20197;-68
2023/05/30 12:54:50;;;;;;;3.08;2.75;;;21.00;64.90;;;;;;4982028;28;20186;-68
2023/05/30 12:57:25;;;;;;;3.35;3.05;;;21.00;64.90;;;;;;4992214;28;20272;-68